createdAt,value
2018-05-23T00:00:06.501Z,97803.55
2018-05-23T00:00:38.094Z,97806.05
2018-05-23T00:01:09.665Z,97801.75
2018-05-23T00:01:41.256Z,97802.62
2018-05-23T00:02:12.846Z,97797.94
2018-05-23T00:02:44.449Z,97806.45
2018-05-23T00:03:16.034Z,97797.93
2018-05-23T00:03:47.617Z,97798.36
2018-05-23T00:04:19.188Z,97801.36
2018-05-23T00:04:50.834Z,97802.64
2018-05-23T00:05:22.507Z,97799.64
2018-05-23T00:05:54.086Z,97792.41
2018-05-23T00:06:25.694Z,97799.22
2018-05-23T00:06:57.288Z,97803.12
2018-05-23T00:07:28.906Z,97799.36
2018-05-23T00:08:00.472Z,97800.23
2018-05-23T00:08:32.078Z,97805.34
2018-05-23T00:09:03.677Z,97800.64
2018-05-23T00:09:35.258Z,97800.64
2018-05-23T00:10:06.906Z,97799.80
2018-05-23T00:10:38.489Z,97801.53
2018-05-23T00:11:10.084Z,97795.19
2018-05-23T00:11:41.687Z,97799.86
2018-05-23T00:12:13.284Z,97792.63
2018-05-23T00:12:44.866Z,97790.86
2018-05-23T00:13:16.474Z,97795.14
2018-05-23T00:13:48.086Z,97794.69
2018-05-23T00:14:19.673Z,97788.73
2018-05-23T00:14:51.277Z,97793.83
2018-05-23T00:15:22.905Z,97795.05
2018-05-23T00:15:54.486Z,97791.26
2018-05-23T00:16:26.074Z,97797.23
2018-05-23T00:16:57.728Z,97791.70
2018-05-23T00:17:29.328Z,97795.95
2018-05-23T00:18:00.942Z,97795.89
2018-05-23T00:18:32.555Z,97793.34
2018-05-23T00:19:04.162Z,97794.20
2018-05-23T00:19:35.766Z,97799.36
2018-05-23T00:20:07.350Z,97799.74
2018-05-23T00:20:38.934Z,97803.98
2018-05-23T00:21:10.504Z,97797.59
2018-05-23T00:21:42.110Z,97799.36
2018-05-23T00:22:13.762Z,97806.14
2018-05-23T00:22:45.344Z,97800.21
2018-05-23T00:23:16.916Z,97794.62
2018-05-23T00:23:48.503Z,97801.06
2018-05-23T00:24:20.118Z,97802.34
2018-05-23T00:24:51.710Z,97801.87
2018-05-23T00:25:23.285Z,97799.74
2018-05-23T00:25:54.914Z,97806.60
2018-05-23T00:26:26.502Z,97799.36
2018-05-23T00:26:58.114Z,97798.52
2018-05-23T00:27:29.699Z,97799.37
2018-05-23T00:28:01.302Z,97803.58
2018-05-23T00:28:32.907Z,97803.19
2018-05-23T00:29:04.513Z,97796.75
2018-05-23T00:29:36.129Z,97797.23
2018-05-23T00:30:07.794Z,97794.25
2018-05-23T00:30:39.406Z,97791.26
2018-05-23T00:31:11.014Z,97798.96
2018-05-23T00:31:42.630Z,97796.41
2018-05-23T00:32:14.233Z,97798.52
2018-05-23T00:32:45.841Z,97799.80
2018-05-23T00:33:17.425Z,97798.53
2018-05-23T00:33:49.035Z,97806.63
2018-05-23T00:34:20.625Z,97799.38
2018-05-23T00:34:52.202Z,97796.83
2018-05-23T00:35:23.782Z,97795.12
2018-05-23T00:35:55.362Z,97801.94
2018-05-23T00:36:27.038Z,97801.50
2018-05-23T00:36:58.654Z,97795.95
2018-05-23T00:37:30.235Z,97803.20
2018-05-23T00:38:01.804Z,97801.08
2018-05-23T00:38:33.409Z,97804.92
2018-05-23T00:39:05.016Z,97796.41
2018-05-23T00:39:36.612Z,97802.38
2018-05-23T00:40:08.221Z,97810.03
2018-05-23T00:40:39.992Z,97806.62
2018-05-23T00:41:11.599Z,97807.89
2018-05-23T00:41:43.206Z,97805.34
2018-05-23T00:42:14.789Z,97807.04
2018-05-23T00:42:46.377Z,97806.60
2018-05-23T00:43:17.948Z,97808.73
2018-05-23T00:43:49.590Z,97807.89
2018-05-23T00:44:21.199Z,97803.58
2018-05-23T00:44:52.786Z,97803.50
2018-05-23T00:45:24.366Z,97796.23
2018-05-23T00:45:55.974Z,97805.98
2018-05-23T00:46:27.590Z,97797.03
2018-05-23T00:46:59.192Z,97803.39
2018-05-23T00:47:36.617Z,97807.67
2018-05-23T00:48:13.901Z,97797.42
2018-05-23T00:48:51.155Z,97799.50
2018-05-23T00:49:28.313Z,97797.36
2018-05-23T00:50:05.678Z,97799.97
2018-05-23T00:50:37.289Z,97794.38
2018-05-23T00:51:08.875Z,97794.80
2018-05-23T00:51:40.506Z,97791.40
2018-05-23T00:52:12.078Z,97793.09
2018-05-23T00:52:43.670Z,97803.76
2018-05-23T00:53:15.286Z,97796.07
2018-05-23T00:53:46.934Z,97805.01
2018-05-23T00:54:18.508Z,97803.30
2018-05-23T00:54:50.118Z,97799.92
2018-05-23T00:55:21.726Z,97798.63
2018-05-23T00:55:53.314Z,97805.03
2018-05-23T00:56:24.893Z,97800.34
2018-05-23T00:56:56.507Z,97803.32
2018-05-23T00:57:28.094Z,97807.16
2018-05-23T00:57:59.664Z,97801.20
2018-05-23T00:58:31.269Z,97801.20
2018-05-23T00:59:02.908Z,97799.92
2018-05-23T00:59:34.522Z,97796.98
2018-05-23T01:00:06.110Z,97805.45
2018-05-23T01:00:37.686Z,97802.90
2018-05-23T01:01:09.320Z,97801.20
2018-05-23T01:01:40.930Z,97799.55
2018-05-23T01:02:12.546Z,97802.10
2018-05-23T01:02:44.144Z,97799.13
2018-05-23T01:03:15.737Z,97801.20
2018-05-23T01:03:47.327Z,97798.63
2018-05-23T01:04:18.917Z,97803.33
2018-05-23T01:04:50.529Z,97803.80
2018-05-23T01:05:22.265Z,97808.93
2018-05-23T01:05:53.849Z,97802.97
2018-05-23T01:06:25.454Z,97805.11
2018-05-23T01:06:57.039Z,97803.84
2018-05-23T01:07:28.642Z,97804.75
2018-05-23T01:08:00.255Z,97803.06
2018-05-23T01:08:31.838Z,97803.06
2018-05-23T01:09:03.419Z,97795.82
2018-05-23T01:09:34.998Z,97799.66
2018-05-23T01:10:06.602Z,97794.98
2018-05-23T01:10:38.226Z,97802.65
2018-05-23T01:11:09.814Z,97806.09
2018-05-23T01:11:41.419Z,97802.70
2018-05-23T01:12:13.007Z,97804.40
2018-05-23T01:12:44.584Z,97797.17
2018-05-23T01:13:16.166Z,97800.16
2018-05-23T01:13:47.736Z,97795.89
2018-05-23T01:14:19.347Z,97801.44
2018-05-23T01:14:50.957Z,97803.14
2018-05-23T01:15:22.552Z,97803.58
2018-05-23T01:15:54.200Z,97803.20
2018-05-23T01:16:25.878Z,97802.78
2018-05-23T01:16:57.421Z,97801.08
2018-05-23T01:17:29.154Z,97804.05
2018-05-23T01:18:00.733Z,97797.61
2018-05-23T01:18:32.318Z,97802.29
2018-05-23T01:19:03.907Z,97791.77
2018-05-23T01:19:35.518Z,97798.08
2018-05-23T01:20:07.102Z,97801.44
2018-05-23T01:20:38.710Z,97799.73
2018-05-23T01:21:10.302Z,97801.06
2018-05-23T01:21:41.897Z,97804.91
2018-05-23T01:22:13.482Z,97803.63
2018-05-23T01:22:45.090Z,97805.33
2018-05-23T01:23:16.679Z,97804.08
2018-05-23T01:23:48.258Z,97806.63
2018-05-23T01:24:19.834Z,97807.06
2018-05-23T01:24:51.418Z,97808.39
2018-05-23T01:25:22.993Z,97811.37
2018-05-23T01:25:54.578Z,97803.70
2018-05-23T01:26:26.162Z,97809.17
2018-05-23T01:26:57.751Z,97809.16
2018-05-23T01:27:29.361Z,97812.53
2018-05-23T01:28:00.938Z,97811.67
2018-05-23T01:28:32.528Z,97812.44
2018-05-23T01:29:04.106Z,97810.50
2018-05-23T01:29:35.709Z,97812.11
2018-05-23T01:30:07.290Z,97814.34
2018-05-23T01:30:38.894Z,97817.80
2018-05-23T01:31:10.483Z,97816.13
2018-05-23T01:31:42.129Z,97814.08
2018-05-23T01:32:13.745Z,97818.32
2018-05-23T01:32:45.398Z,97814.03
2018-05-23T01:33:17.002Z,97815.33
2018-05-23T01:33:48.674Z,97812.84
2018-05-23T01:34:20.284Z,97813.65
2018-05-23T01:34:51.893Z,97817.11
2018-05-23T01:35:23.487Z,97816.27
2018-05-23T01:35:55.172Z,97823.52
2018-05-23T01:36:26.770Z,97814.57
2018-05-23T01:36:58.356Z,97818.41
2018-05-23T01:37:29.961Z,97819.70
2018-05-23T01:38:01.605Z,97818.42
2018-05-23T01:38:33.180Z,97816.33
2018-05-23T01:39:04.786Z,97815.91
2018-05-23T01:39:36.387Z,97822.30
2018-05-23T01:40:08.033Z,97828.70
2018-05-23T01:40:39.614Z,97825.30
2018-05-23T01:41:11.199Z,97820.19
2018-05-23T01:41:42.786Z,97824.88
2018-05-23T01:42:14.380Z,97824.02
2018-05-23T01:42:45.968Z,97827.00
2018-05-23T01:43:17.565Z,97824.02
2018-05-23T01:43:49.174Z,97822.33
2018-05-23T01:44:20.786Z,97822.30
2018-05-23T01:44:52.393Z,97823.16
2018-05-23T01:45:24.006Z,97835.51
2018-05-23T01:45:55.584Z,97820.55
2018-05-23T01:46:27.167Z,97824.86
2018-05-23T01:46:58.761Z,97825.30
2018-05-23T01:47:30.407Z,97824.39
2018-05-23T01:48:01.990Z,97825.72
2018-05-23T01:48:33.598Z,97827.41
2018-05-23T01:49:05.182Z,97824.45
2018-05-23T01:49:36.762Z,97831.70
2018-05-23T01:50:08.376Z,97825.30
2018-05-23T01:50:39.962Z,97830.83
2018-05-23T01:51:11.538Z,97832.53
2018-05-23T01:51:43.129Z,97829.13
2018-05-23T01:52:14.700Z,97832.53
2018-05-23T01:52:46.301Z,97835.95
2018-05-23T01:53:17.934Z,97835.90
2018-05-23T01:53:49.540Z,97830.78
2018-05-23T01:54:21.149Z,97832.56
2018-05-23T01:54:52.728Z,97830.41
2018-05-23T01:55:24.378Z,97832.55
2018-05-23T01:55:55.976Z,97831.27
2018-05-23T01:56:27.573Z,97837.66
2018-05-23T01:56:59.159Z,97836.81
2018-05-23T01:57:30.795Z,97836.39
2018-05-23T01:58:02.378Z,97832.20
2018-05-23T01:58:33.982Z,97832.98
2018-05-23T01:59:05.589Z,97836.81
2018-05-23T01:59:37.199Z,97832.13
2018-05-23T02:00:08.812Z,97827.02
2018-05-23T02:00:40.420Z,97835.54
2018-05-23T02:01:12.006Z,97835.54
2018-05-23T02:01:43.590Z,97826.59
2018-05-23T02:02:15.185Z,97832.18
2018-05-23T02:02:46.833Z,97830.48
2018-05-23T02:03:18.419Z,97832.61
2018-05-23T02:03:50.013Z,97831.77
2018-05-23T02:04:21.616Z,97831.78
2018-05-23T02:04:53.202Z,97829.65
2018-05-23T02:05:24.822Z,97829.23
2018-05-23T02:05:56.412Z,97828.86
2018-05-23T02:06:28.036Z,97828.38
2018-05-23T02:06:59.618Z,97828.43
2018-05-23T02:07:31.217Z,97832.69
2018-05-23T02:08:02.819Z,97825.03
2018-05-23T02:08:34.410Z,97833.13
2018-05-23T02:09:05.995Z,97825.89
2018-05-23T02:09:37.602Z,97825.04
2018-05-23T02:10:09.191Z,97828.03
2018-05-23T02:10:40.846Z,97828.84
2018-05-23T02:11:12.430Z,97831.84
2018-05-23T02:11:44.033Z,97828.00
2018-05-23T02:12:15.617Z,97830.98
2018-05-23T02:12:47.202Z,97831.36
2018-05-23T02:13:18.782Z,97831.36
2018-05-23T02:13:50.366Z,97828.38
2018-05-23T02:14:21.966Z,97825.39
2018-05-23T02:14:53.554Z,97821.55
2018-05-23T02:15:25.168Z,97821.98
2018-05-23T02:15:56.821Z,97821.13
2018-05-23T02:16:28.433Z,97831.34
2018-05-23T02:17:00.042Z,97820.34
2018-05-23T02:17:31.624Z,97821.99
2018-05-23T02:18:03.203Z,97825.39
2018-05-23T02:18:34.810Z,97824.11
2018-05-23T02:19:06.380Z,97826.67
2018-05-23T02:19:37.987Z,97828.38
2018-05-23T02:20:09.575Z,97824.59
2018-05-23T02:20:41.202Z,97828.80
2018-05-23T02:21:12.782Z,97829.66
2018-05-23T02:21:44.373Z,97830.07
2018-05-23T02:22:15.969Z,97828.80
2018-05-23T02:22:47.559Z,97833.91
2018-05-23T02:23:19.166Z,97830.07
2018-05-23T02:23:50.790Z,97826.23
2018-05-23T02:24:22.374Z,97828.80
2018-05-23T02:24:53.958Z,97828.37
2018-05-23T02:25:25.543Z,97832.62
2018-05-23T02:25:57.146Z,97828.38
2018-05-23T02:26:28.754Z,97831.83
2018-05-23T02:27:00.351Z,97825.45
2018-05-23T02:27:31.951Z,97831.42
2018-05-23T02:28:03.562Z,97824.61
2018-05-23T02:28:35.172Z,97824.24
2018-05-23T02:29:06.758Z,97828.43
2018-05-23T02:29:38.341Z,97832.27
2018-05-23T02:30:09.912Z,97830.13
2018-05-23T02:30:41.501Z,97829.27
2018-05-23T02:31:13.125Z,97829.27
2018-05-23T02:31:44.715Z,97827.59
2018-05-23T02:32:16.299Z,97831.36
2018-05-23T02:32:47.890Z,97829.27
2018-05-23T02:33:19.494Z,97836.52
2018-05-23T02:33:51.172Z,97837.75
2018-05-23T02:34:22.769Z,97834.78
2018-05-23T02:34:54.351Z,97833.92
2018-05-23T02:35:25.952Z,97838.22
2018-05-23T02:35:57.558Z,97842.06
2018-05-23T02:36:29.132Z,97838.18
2018-05-23T02:37:00.730Z,97847.55
2018-05-23T02:37:32.318Z,97839.88
2018-05-23T02:38:03.922Z,97841.59
2018-05-23T02:38:35.537Z,97843.34
2018-05-23T02:39:07.187Z,97844.62
2018-05-23T02:39:38.830Z,97847.12
2018-05-23T02:40:10.433Z,97844.48
2018-05-23T02:40:42.045Z,97840.39
2018-05-23T02:41:13.621Z,97847.48
2018-05-23T02:41:45.203Z,97845.88
2018-05-23T02:42:16.786Z,97843.14
2018-05-23T02:42:48.384Z,97841.91
2018-05-23T02:43:20.032Z,97845.33
2018-05-23T02:43:51.641Z,97848.00
2018-05-23T02:44:23.226Z,97843.34
2018-05-23T02:44:54.796Z,97845.81
2018-05-23T02:45:26.434Z,97846.55
2018-05-23T02:45:58.046Z,97846.33
2018-05-23T02:46:29.658Z,97853.31
2018-05-23T02:47:01.295Z,97848.81
2018-05-23T02:47:32.873Z,97853.63
2018-05-23T02:48:04.527Z,97850.47
2018-05-23T02:48:36.143Z,97855.77
2018-05-23T02:49:07.758Z,97854.14
2018-05-23T02:49:39.374Z,97855.17
2018-05-23T02:50:10.977Z,97851.92
2018-05-23T02:50:42.592Z,97852.04
2018-05-23T02:51:14.197Z,97852.98
2018-05-23T02:51:45.798Z,97858.16
2018-05-23T02:52:17.386Z,97854.06
2018-05-23T02:52:48.980Z,97854.66
2018-05-23T02:53:20.566Z,97850.70
2018-05-23T02:53:52.145Z,97852.69
2018-05-23T02:54:23.720Z,97847.89
2018-05-23T02:54:55.326Z,97850.84
2018-05-23T02:55:26.914Z,97843.92
2018-05-23T02:55:58.526Z,97851.05
2018-05-23T02:56:30.111Z,97849.58
2018-05-23T02:57:01.701Z,97851.08
2018-05-23T02:57:33.315Z,97846.66
2018-05-23T02:58:04.928Z,97849.93
2018-05-23T02:58:36.533Z,97852.90
2018-05-23T02:59:08.150Z,97853.27
2018-05-23T02:59:39.757Z,97846.46
2018-05-23T03:00:11.329Z,97851.63
2018-05-23T03:00:42.910Z,97851.22
2018-05-23T03:01:14.484Z,97853.83
2018-05-23T03:01:46.070Z,97850.50
2018-05-23T03:02:17.654Z,97850.51
2018-05-23T03:02:49.367Z,97848.00
2018-05-23T03:03:20.906Z,97852.70
2018-05-23T03:03:52.532Z,97851.86
2018-05-23T03:04:24.138Z,97849.78
2018-05-23T03:04:55.727Z,97852.77
2018-05-23T03:05:27.304Z,97853.20
2018-05-23T03:05:58.884Z,97846.81
2018-05-23T03:06:30.466Z,97852.83
2018-05-23T03:07:02.049Z,97854.49
2018-05-23T03:07:33.662Z,97852.84
2018-05-23T03:08:05.240Z,97851.56
2018-05-23T03:08:36.850Z,97855.39
2018-05-23T03:09:08.425Z,97855.41
2018-05-23T03:09:40.026Z,97853.28
2018-05-23T03:10:11.653Z,97856.70
2018-05-23T03:10:43.259Z,97858.44
2018-05-23T03:11:14.842Z,97852.91
2018-05-23T03:11:46.427Z,97855.88
2018-05-23T03:12:18.005Z,97858.02
2018-05-23T03:12:49.584Z,97860.15
2018-05-23T03:13:21.195Z,97858.02
2018-05-23T03:13:52.786Z,97859.30
2018-05-23T03:14:24.425Z,97859.73
2018-05-23T03:14:56.054Z,97862.72
2018-05-23T03:15:27.657Z,97863.58
2018-05-23T03:15:59.366Z,97867.41
2018-05-23T03:16:30.946Z,97862.73
2018-05-23T03:17:02.540Z,97865.28
2018-05-23T03:17:34.126Z,97865.75
2018-05-23T03:18:05.730Z,97863.19
2018-05-23T03:18:37.303Z,97867.45
2018-05-23T03:19:08.877Z,97866.18
2018-05-23T03:19:40.453Z,97867.03
2018-05-23T03:20:12.110Z,97867.03
2018-05-23T03:20:43.694Z,97864.48
2018-05-23T03:21:15.288Z,97865.34
2018-05-23T03:21:46.860Z,97867.47
2018-05-23T03:22:18.441Z,97870.45
2018-05-23T03:22:50.042Z,97868.32
2018-05-23T03:23:21.655Z,97869.17
2018-05-23T03:23:53.258Z,97866.63
2018-05-23T03:24:24.853Z,97864.92
2018-05-23T03:24:56.435Z,97871.75
2018-05-23T03:25:28.064Z,97870.03
2018-05-23T03:25:59.659Z,97872.17
2018-05-23T03:26:31.228Z,97876.00
2018-05-23T03:27:02.820Z,97878.98
2018-05-23T03:27:34.407Z,97871.75
2018-05-23T03:28:05.990Z,97873.06
2018-05-23T03:28:37.573Z,97875.20
2018-05-23T03:29:09.179Z,97879.03
2018-05-23T03:29:40.798Z,97873.55
2018-05-23T03:30:12.398Z,97877.75
2018-05-23T03:30:44.001Z,97873.08
2018-05-23T03:31:15.576Z,97871.38
2018-05-23T03:31:47.145Z,97876.92
2018-05-23T03:32:18.746Z,97876.48
2018-05-23T03:32:50.336Z,97877.77
2018-05-23T03:33:21.938Z,97872.66
2018-05-23T03:33:53.526Z,97871.39
2018-05-23T03:34:25.160Z,97868.83
2018-05-23T03:34:56.810Z,97875.22
2018-05-23T03:35:28.421Z,97873.55
2018-05-23T03:36:00.002Z,97875.27
2018-05-23T03:36:31.574Z,97866.31
2018-05-23T03:37:03.183Z,97871.00
2018-05-23T03:37:34.794Z,97875.69
2018-05-23T03:38:06.418Z,97879.09
2018-05-23T03:38:37.993Z,97879.09
2018-05-23T03:39:09.594Z,97874.83
2018-05-23T03:39:41.197Z,97881.65
2018-05-23T03:40:12.820Z,97882.08
2018-05-23T03:40:44.405Z,97883.78
2018-05-23T03:41:21.750Z,97881.66
2018-05-23T03:41:59.159Z,97884.64
2018-05-23T03:42:36.398Z,97884.64
2018-05-23T03:43:13.794Z,97886.34
2018-05-23T03:43:48.337Z,97891.45
2018-05-23T03:44:19.909Z,97891.89
2018-05-23T03:44:51.487Z,97890.18
2018-05-23T03:45:28.870Z,97888.05
2018-05-23T03:46:06.214Z,97888.05
2018-05-23T03:46:43.472Z,97886.36
2018-05-23T03:47:15.050Z,97888.10
2018-05-23T03:47:46.630Z,97888.11
2018-05-23T03:48:18.213Z,97888.11
2018-05-23T03:48:49.784Z,97890.23
2018-05-23T03:49:21.360Z,97892.37
2018-05-23T03:49:52.953Z,97891.52
2018-05-23T03:50:24.524Z,97888.53
2018-05-23T03:50:56.130Z,97894.93
2018-05-23T03:51:27.718Z,97878.95
2018-05-23T03:51:59.418Z,97891.95
2018-05-23T03:52:30.992Z,97888.11
2018-05-23T03:53:02.574Z,97890.67
2018-05-23T03:53:34.179Z,97893.66
2018-05-23T03:54:05.785Z,97894.51
2018-05-23T03:54:37.370Z,97891.16
2018-05-23T03:55:08.941Z,97886.86
2018-05-23T03:55:40.536Z,97893.66
2018-05-23T03:56:12.166Z,97893.66
2018-05-23T03:56:43.770Z,97899.20
2018-05-23T03:57:15.367Z,97893.24
2018-05-23T03:57:46.977Z,97895.36
2018-05-23T03:58:18.567Z,97895.78
2018-05-23T03:58:50.140Z,97887.27
2018-05-23T03:59:21.722Z,97894.94
2018-05-23T03:59:53.291Z,97895.80
2018-05-23T04:00:24.871Z,97893.66
2018-05-23T04:00:56.478Z,97901.33
2018-05-23T04:01:28.059Z,97900.91
2018-05-23T04:01:59.655Z,97903.46
2018-05-23T04:02:31.317Z,97902.61
2018-05-23T04:03:02.898Z,97905.16
2018-05-23T04:03:34.532Z,97899.63
2018-05-23T04:04:06.117Z,97905.16
2018-05-23T04:04:37.699Z,97900.48
2018-05-23T04:05:09.283Z,97906.02
2018-05-23T04:05:40.885Z,97902.64
2018-05-23T04:06:12.534Z,97903.52
2018-05-23T04:06:44.108Z,97902.61
2018-05-23T04:07:15.714Z,97909.03
2018-05-23T04:07:47.326Z,97897.97
2018-05-23T04:08:18.900Z,97903.04
2018-05-23T04:08:50.524Z,97907.34
2018-05-23T04:09:22.112Z,97904.36
2018-05-23T04:09:53.698Z,97902.66
2018-05-23T04:10:25.306Z,97905.21
2018-05-23T04:10:56.895Z,97903.95
2018-05-23T04:11:28.478Z,97900.10
2018-05-23T04:12:00.073Z,97912.44
2018-05-23T04:12:31.683Z,97905.22
2018-05-23T04:13:03.284Z,97905.21
2018-05-23T04:13:34.903Z,97907.34
2018-05-23T04:14:06.534Z,97913.73
2018-05-23T04:14:38.104Z,97903.52
2018-05-23T04:15:09.696Z,97901.39
2018-05-23T04:15:41.297Z,97904.37
2018-05-23T04:16:12.909Z,97906.06
2018-05-23T04:16:44.512Z,97906.08
2018-05-23T04:17:16.102Z,97907.77
2018-05-23T04:17:47.690Z,97909.48
2018-05-23T04:18:19.293Z,97913.73
2018-05-23T04:18:50.874Z,97909.91
2018-05-23T04:19:22.501Z,97914.58
2018-05-23T04:19:54.072Z,97914.58
2018-05-23T04:20:25.677Z,97911.59
2018-05-23T04:20:57.281Z,97912.87
2018-05-23T04:21:28.856Z,97912.87
2018-05-23T04:22:00.438Z,97920.92
2018-05-23T04:22:32.071Z,97917.97
2018-05-23T04:23:03.645Z,97917.94
2018-05-23T04:23:35.227Z,97916.22
2018-05-23T04:24:06.888Z,97921.05
2018-05-23T04:24:38.458Z,97920.06
2018-05-23T04:25:10.032Z,97916.50
2018-05-23T04:25:41.619Z,97917.63
2018-05-23T04:26:13.192Z,97915.79
2018-05-23T04:26:44.784Z,97916.44
2018-05-23T04:27:16.390Z,97914.89
2018-05-23T04:27:48.037Z,97916.88
2018-05-23T04:28:19.626Z,97921.07
2018-05-23T04:28:51.214Z,97919.28
2018-05-23T04:29:22.804Z,97925.47
2018-05-23T04:29:54.390Z,97928.28
2018-05-23T04:30:25.960Z,97926.88
2018-05-23T04:30:57.571Z,97928.02
2018-05-23T04:31:29.168Z,97930.12
2018-05-23T04:32:00.764Z,97931.41
2018-05-23T04:32:32.360Z,97930.19
2018-05-23T04:33:04.014Z,97918.89
2018-05-23T04:33:35.626Z,97933.88
2018-05-23T04:34:07.220Z,97934.52
2018-05-23T04:34:38.826Z,97927.02
2018-05-23T04:35:10.428Z,97923.05
2018-05-23T04:35:42.077Z,97932.62
2018-05-23T04:36:13.683Z,97932.97
2018-05-23T04:36:45.264Z,97930.82
2018-05-23T04:37:16.842Z,97927.85
2018-05-23T04:37:48.455Z,97925.45
2018-05-23T04:38:20.042Z,97931.44
2018-05-23T04:38:51.626Z,97931.03
2018-05-23T04:39:24.316Z,97940.03
2018-05-23T04:39:55.926Z,97940.98
2018-05-23T04:40:27.529Z,97942.17
2018-05-23T04:40:59.105Z,97939.48
2018-05-23T04:41:30.690Z,97941.56
2018-05-23T04:42:02.298Z,97937.78
2018-05-23T04:42:33.891Z,97945.58
2018-05-23T04:43:05.482Z,97940.27
2018-05-23T04:43:37.062Z,97937.90
2018-05-23T04:44:08.666Z,97938.93
2018-05-23T04:44:40.305Z,97942.06
2018-05-23T04:45:11.958Z,97939.69
2018-05-23T04:45:43.570Z,97942.78
2018-05-23T04:46:15.322Z,97935.75
2018-05-23T04:46:46.952Z,97936.88
2018-05-23T04:47:18.560Z,97940.23
2018-05-23T04:47:50.173Z,97940.66
2018-05-23T04:48:21.766Z,97939.31
2018-05-23T04:48:53.380Z,97937.91
2018-05-23T04:49:24.970Z,97937.73
2018-05-23T04:49:56.566Z,97941.36
2018-05-23T04:50:28.169Z,97944.48
2018-05-23T04:50:59.753Z,97915.59
2018-05-23T04:51:31.391Z,97943.80
2018-05-23T04:52:02.960Z,97947.28
2018-05-23T04:52:34.552Z,97947.36
2018-05-23T04:53:06.142Z,97947.02
2018-05-23T04:53:37.728Z,97949.61
2018-05-23T04:54:09.359Z,97946.70
2018-05-23T04:54:40.938Z,97945.92
2018-05-23T04:55:12.518Z,97946.83
2018-05-23T04:55:44.112Z,97947.70
2018-05-23T04:56:15.723Z,97953.32
2018-05-23T04:56:47.326Z,97953.80
2018-05-23T04:57:18.997Z,97953.42
2018-05-23T04:57:50.605Z,97954.73
2018-05-23T04:58:22.185Z,97950.95
2018-05-23T04:58:53.781Z,97951.39
2018-05-23T04:59:25.407Z,97955.30
2018-05-23T04:59:57.007Z,97956.15
2018-05-23T05:00:28.604Z,97953.64
2018-05-23T05:01:00.190Z,97957.91
2018-05-23T05:01:31.805Z,97956.21
2018-05-23T05:02:03.418Z,97956.23
2018-05-23T05:02:35.061Z,97954.95
2018-05-23T05:03:06.665Z,97955.01
2018-05-23T05:03:38.270Z,97959.28
2018-05-23T05:04:09.927Z,97949.55
2018-05-23T05:04:41.536Z,97952.16
2018-05-23T05:05:13.131Z,97946.20
2018-05-23T05:05:44.742Z,97951.75
2018-05-23T05:06:16.393Z,97948.82
2018-05-23T05:06:47.968Z,97948.41
2018-05-23T05:07:19.546Z,97954.41
2018-05-23T05:07:51.117Z,97958.64
2018-05-23T05:08:22.709Z,97954.42
2018-05-23T05:08:54.343Z,97952.78
2018-05-23T05:09:26.050Z,97959.13
2018-05-23T05:09:57.720Z,97954.45
2018-05-23T05:10:29.282Z,97956.61
2018-05-23T05:11:00.890Z,97957.48
2018-05-23T05:11:32.502Z,97953.66
2018-05-23T05:12:04.134Z,97963.44
2018-05-23T05:12:35.714Z,97960.89
2018-05-23T05:13:07.285Z,97960.89
2018-05-23T05:13:38.957Z,97958.77
2018-05-23T05:14:10.490Z,97965.58
2018-05-23T05:14:42.061Z,97963.03
2018-05-23T05:15:13.642Z,97966.92
2018-05-23T05:15:45.232Z,97963.49
2018-05-23T05:16:16.841Z,97968.61
2018-05-23T05:16:48.485Z,97962.23
2018-05-23T05:17:20.072Z,97962.66
2018-05-23T05:17:51.649Z,97968.63
2018-05-23T05:18:23.248Z,97963.53
2018-05-23T05:18:54.866Z,97968.68
2018-05-23T05:19:26.445Z,97965.70
2018-05-23T05:19:58.054Z,97966.56
2018-05-23T05:20:29.707Z,97970.82
2018-05-23T05:21:01.295Z,97970.83
2018-05-23T05:21:32.897Z,97967.85
2018-05-23T05:22:04.511Z,97975.14
2018-05-23T05:22:36.108Z,97974.29
2018-05-23T05:23:07.685Z,97979.41
2018-05-23T05:23:39.262Z,97973.02
2018-05-23T05:24:10.864Z,97982.81
2018-05-23T05:24:42.460Z,97980.27
2018-05-23T05:25:14.036Z,97973.06
2018-05-23T05:25:45.628Z,97975.21
2018-05-23T05:26:17.216Z,97973.08
2018-05-23T05:26:48.802Z,97970.95
2018-05-23T05:27:20.405Z,97975.63
2018-05-23T05:27:51.998Z,97982.02
2018-05-23T05:28:23.568Z,97978.62
2018-05-23T05:28:55.217Z,97975.21
2018-05-23T05:29:26.826Z,97978.19
2018-05-23T05:29:58.439Z,97971.81
2018-05-23T05:30:30.055Z,97976.06
2018-05-23T05:31:01.646Z,97972.66
2018-05-23T05:31:33.296Z,97971.81
2018-05-23T05:32:04.906Z,97976.91
2018-05-23T05:32:36.510Z,97974.78
2018-05-23T05:33:08.117Z,97979.04
2018-05-23T05:33:39.716Z,97983.30
2018-05-23T05:34:11.312Z,97982.03
2018-05-23T05:34:42.923Z,97977.78
2018-05-23T05:35:14.527Z,97986.72
2018-05-23T05:35:46.105Z,97981.23
2018-05-23T05:36:17.705Z,97979.52
2018-05-23T05:36:49.350Z,97981.62
2018-05-23T05:37:20.938Z,97986.72
2018-05-23T05:37:52.518Z,97987.61
2018-05-23T05:38:24.102Z,97984.64
2018-05-23T05:38:55.694Z,97984.64
2018-05-23T05:39:27.294Z,97988.05
2018-05-23T05:39:58.894Z,97992.72
2018-05-23T05:40:30.578Z,97987.15
2018-05-23T05:41:02.129Z,97989.28
2018-05-23T05:41:33.711Z,97990.56
2018-05-23T05:42:05.294Z,97997.37
2018-05-23T05:42:36.865Z,97995.28
2018-05-23T05:43:08.446Z,97994.86
2018-05-23T05:43:40.019Z,97996.13
2018-05-23T05:44:11.591Z,97993.58
2018-05-23T05:44:43.185Z,98005.50
2018-05-23T05:45:14.841Z,97997.84
2018-05-23T05:45:46.426Z,97999.11
2018-05-23T05:46:18.025Z,98001.66
2018-05-23T05:46:49.607Z,98003.33
2018-05-23T05:47:21.176Z,98005.03
2018-05-23T05:47:52.778Z,97999.11
2018-05-23T05:48:24.353Z,97999.11
2018-05-23T05:48:55.954Z,97999.98
2018-05-23T05:49:27.574Z,98000.34
2018-05-23T05:49:59.171Z,98003.33
2018-05-23T05:50:30.825Z,98002.48
2018-05-23T05:51:02.434Z,97999.50
2018-05-23T05:51:34.025Z,98002.95
2018-05-23T05:52:05.629Z,97997.79
2018-05-23T05:52:37.229Z,98002.91
2018-05-23T05:53:08.838Z,97999.91
2018-05-23T05:53:40.474Z,98004.18
2018-05-23T05:54:12.034Z,98006.30
2018-05-23T05:54:43.622Z,98008.00
2018-05-23T05:55:15.234Z,98008.00
2018-05-23T05:55:46.890Z,98002.91
2018-05-23T05:56:18.487Z,98010.98
2018-05-23T05:56:50.094Z,98007.16
2018-05-23T05:57:21.697Z,98004.18
2018-05-23T05:57:53.301Z,98006.73
2018-05-23T05:58:24.918Z,98012.26
2018-05-23T05:58:56.502Z,98002.52
2018-05-23T05:59:28.092Z,98007.57
2018-05-23T05:59:59.673Z,98005.88
2018-05-23T06:00:31.263Z,98009.70
2018-05-23T06:01:02.842Z,98008.42
2018-05-23T06:01:34.426Z,98008.86
2018-05-23T06:02:06.104Z,98012.69
2018-05-23T06:02:37.638Z,98008.84
2018-05-23T06:03:09.229Z,98008.84
2018-05-23T06:03:40.838Z,97990.79
2018-05-23T06:04:12.412Z,98013.54
2018-05-23T06:04:44.027Z,98010.13
2018-05-23T06:05:15.641Z,98012.69
2018-05-23T06:05:47.226Z,98006.30
2018-05-23T06:06:18.829Z,98012.69
2018-05-23T06:06:50.441Z,98010.13
2018-05-23T06:07:22.044Z,98016.52
2018-05-23T06:07:53.654Z,98016.52
2018-05-23T06:08:25.266Z,98020.78
2018-05-23T06:08:56.850Z,98017.80
2018-05-23T06:09:28.490Z,98017.38
2018-05-23T06:10:00.172Z,98024.18
2018-05-23T06:10:31.723Z,98020.77
2018-05-23T06:11:03.311Z,98018.22
2018-05-23T06:11:35.161Z,98023.33
2018-05-23T06:12:06.761Z,98023.34